createdAt,value
2023-04-16T00:00:03.381Z,98045.38
2023-04-16T00:02:38.796Z,98044.16
2023-04-16T00:05:06.983Z,98041.16
2023-04-16T00:07:34.463Z,98046.72
2023-04-16T00:10:02.107Z,98048.59
2023-04-16T00:12:29.650Z,98049.03
2023-04-16T00:14:57.213Z,98054.03
2023-04-16T00:17:25.211Z,98056.28
2023-04-16T00:19:53.095Z,98050.31
2023-04-16T00:22:20.555Z,98067.84
2023-04-16T00:24:47.987Z,98064.28
2023-04-16T00:27:15.484Z,98062.75
2023-04-16T00:29:43.120Z,98060.56
2023-04-16T00:32:10.572Z,98055.41
2023-04-16T00:34:38.036Z,98062.88
2023-04-16T00:37:05.455Z,98057.22
2023-04-16T00:39:33.419Z,98057.44
2023-04-16T00:42:01.002Z,98058.44
2023-04-16T00:44:29.361Z,98054.84
2023-04-16T00:46:57.826Z,98047.06
2023-04-16T00:49:25.652Z,98055.81
2023-04-16T00:51:53.170Z,98070.44
2023-04-16T00:54:21.220Z,98075.25
2023-04-16T00:56:49.483Z,98068.31
2023-04-16T00:59:17.027Z,98060.38
2023-04-16T01:01:44.626Z,98074.16
2023-04-16T01:04:12.482Z,98078.56
2023-04-16T01:06:40.082Z,98060.06
2023-04-16T01:09:07.869Z,98073.03
2023-04-16T01:11:37.150Z,98074.19
2023-04-16T01:14:04.648Z,98066.91
2023-04-16T01:16:33.361Z,98069.16
2023-04-16T01:19:00.928Z,98076.94
2023-04-16T01:21:28.698Z,98066.91
2023-04-16T01:23:56.187Z,98074.84
2023-04-16T01:26:23.712Z,98077.75
2023-04-16T01:28:51.322Z,98076.16
2023-04-16T01:31:18.845Z,98076.31
2023-04-16T01:33:53.836Z,98071.44
2023-04-16T01:36:21.344Z,98071.75
2023-04-16T01:38:49.820Z,98068.34
2023-04-16T01:41:17.308Z,98064.47
2023-04-16T01:43:44.767Z,98063.19
2023-04-16T01:46:20.489Z,98059.13
2023-04-16T01:48:48.714Z,98061.53
2023-04-16T01:51:16.210Z,98065.13
2023-04-16T01:53:43.625Z,98060.41
2023-04-16T01:56:11.101Z,98054.72
2023-04-16T01:58:38.692Z,98053.94
2023-04-16T02:01:06.554Z,98048.72
2023-04-16T02:03:35.290Z,98044.84
2023-04-16T02:06:04.876Z,98046.78
2023-04-16T02:08:32.834Z,98029.78
2023-04-16T02:11:01.453Z,98038.19
2023-04-16T02:13:29.373Z,98033.16
2023-04-16T02:15:56.965Z,98032.03
2023-04-16T02:18:36.007Z,98033.94
2023-04-16T02:21:03.951Z,98035.91
2023-04-16T02:23:31.603Z,98030.56
2023-04-16T02:26:01.097Z,98020.53
2023-04-16T02:28:29.462Z,98022.75
2023-04-16T02:30:57.639Z,98018.88
2023-04-16T02:33:26.784Z,98024.19
2023-04-16T02:36:03.668Z,98022.41
2023-04-16T02:38:31.238Z,98025.94
2023-04-16T02:40:59.455Z,98022.06
2023-04-16T02:43:27.004Z,98013.91
2023-04-16T02:45:54.460Z,98024.47
2023-04-16T02:48:21.954Z,98017.97
2023-04-16T02:50:49.434Z,98019.78
2023-04-16T02:53:16.958Z,98017.19
2023-04-16T02:55:52.898Z,98014.75
2023-04-16T02:58:22.162Z,98012.16
2023-04-16T03:00:50.262Z,98004.56
2023-04-16T03:03:18.178Z,98003.75
2023-04-16T03:05:45.887Z,98001.28
2023-04-16T03:08:13.450Z,98003.75
2023-04-16T03:10:41.787Z,97997.63
2023-04-16T03:13:09.247Z,98005.28
2023-04-16T03:15:36.909Z,98015.31
2023-04-16T03:18:04.490Z,98010.78
2023-04-16T03:20:32.261Z,98014.81
2023-04-16T03:22:59.793Z,98007.97
2023-04-16T03:25:27.412Z,98019.31
2023-04-16T03:27:54.880Z,98028.72
2023-04-16T03:30:22.393Z,98027.50
2023-04-16T03:32:49.903Z,98043.53
2023-04-16T03:35:17.547Z,98045.69
2023-04-16T03:37:45.552Z,98063.34
2023-04-16T03:40:13.873Z,98061.41
2023-04-16T03:42:41.860Z,98058.13
2023-04-16T03:45:09.884Z,98054.22
2023-04-16T03:47:38.896Z,98052.91
2023-04-16T03:50:06.967Z,98054.34
2023-04-16T03:52:34.765Z,98050.94
2023-04-16T03:55:03.958Z,98061.81
2023-04-16T03:57:32.349Z,98055.84
2023-04-16T04:00:09.389Z,98056.19
2023-04-16T04:02:47.798Z,98049.72
2023-04-16T04:05:19.502Z,98054.44
2023-04-16T04:07:48.342Z,98048.28
2023-04-16T04:10:16.418Z,98043.09
2023-04-16T04:12:44.223Z,98041.75
2023-04-16T04:15:12.208Z,98039.00
2023-04-16T04:17:39.799Z,98036.22
2023-04-16T04:20:07.985Z,98037.84
2023-04-16T04:22:37.069Z,98041.69
2023-04-16T04:25:04.999Z,98043.50
2023-04-16T04:27:33.606Z,98046.34
2023-04-16T04:30:01.228Z,98054.91
2023-04-16T04:32:29.170Z,98049.03
2023-04-16T04:34:56.627Z,98058.44
2023-04-16T04:37:24.114Z,98064.13
2023-04-16T04:39:51.642Z,98062.81
2023-04-16T04:42:21.106Z,98063.50
2023-04-16T04:44:48.884Z,98074.06
2023-04-16T04:47:16.463Z,98078.59
2023-04-16T04:49:44.052Z,98079.69
2023-04-16T04:52:11.902Z,98084.53
2023-04-16T04:54:41.841Z,98081.91
2023-04-16T04:57:09.518Z,98086.13
2023-04-16T04:59:37.019Z,98092.00
2023-04-16T05:02:04.722Z,98093.91
2023-04-16T05:04:32.279Z,98091.13
2023-04-16T05:06:59.744Z,98082.53
2023-04-16T05:09:27.353Z,98097.94
2023-04-16T05:11:54.887Z,98094.91
2023-04-16T05:14:22.384Z,98099.41
2023-04-16T05:16:50.324Z,98100.22
2023-04-16T05:19:17.871Z,98099.06
2023-04-16T05:21:45.451Z,98104.38
2023-04-16T05:24:14.787Z,98100.66
2023-04-16T05:26:42.630Z,98109.59
2023-04-16T05:29:10.308Z,98112.19
2023-04-16T05:31:38.475Z,98117.56
2023-04-16T05:34:05.979Z,98118.53
2023-04-16T05:36:33.506Z,98114.16
2023-04-16T05:39:01.117Z,98113.47
2023-04-16T05:41:28.648Z,98121.03
2023-04-16T05:43:56.260Z,98121.63
2023-04-16T05:46:23.859Z,98124.16
2023-04-16T05:48:51.508Z,98127.44
2023-04-16T05:51:19.049Z,98125.56
2023-04-16T05:53:46.553Z,98117.38
2023-04-16T05:56:14.019Z,98122.22
2023-04-16T05:58:41.524Z,98120.13
2023-04-16T06:01:09.023Z,98131.91
2023-04-16T06:03:36.674Z,98141.97
2023-04-16T06:06:04.494Z,98147.03
2023-04-16T06:08:31.931Z,98136.53
2023-04-16T06:10:59.460Z,98123.69
2023-04-16T06:13:26.892Z,98135.19
2023-04-16T06:15:54.503Z,98122.88
2023-04-16T06:18:22.009Z,98122.22
2023-04-16T06:20:49.439Z,98125.28
2023-04-16T06:23:17.115Z,98124.44
2023-04-16T06:25:44.604Z,98129.69
2023-04-16T06:28:12.060Z,98130.94
2023-04-16T06:30:40.032Z,98143.44
2023-04-16T06:33:07.614Z,98138.59
2023-04-16T06:35:35.898Z,98141.19
2023-04-16T06:38:03.251Z,98138.97
2023-04-16T06:40:30.807Z,98135.78
2023-04-16T06:42:58.435Z,98137.63
2023-04-16T06:45:25.983Z,98130.34
2023-04-16T06:47:53.519Z,98134.94
2023-04-16T06:50:22.274Z,98136.97
2023-04-16T06:52:49.807Z,98137.19
2023-04-16T06:55:17.588Z,98138.97
2023-04-16T06:57:45.391Z,98138.41
2023-04-16T07:00:13.473Z,98141.88
2023-04-16T07:02:41.398Z,98142.72
2023-04-16T07:05:09.160Z,98138.47
2023-04-16T07:07:36.633Z,98135.97
2023-04-16T07:10:05.800Z,98142.13
2023-04-16T07:12:33.765Z,98143.78
2023-04-16T07:15:01.325Z,98132.38
2023-04-16T07:17:28.828Z,98131.16
2023-04-16T07:19:56.326Z,98126.72
2023-04-16T07:22:23.793Z,98121.78
2023-04-16T07:24:51.243Z,98119.16
2023-04-16T07:27:18.836Z,98120.19
2023-04-16T07:29:46.821Z,98121.44
2023-04-16T07:32:15.470Z,98140.25
2023-04-16T07:34:43.319Z,98135.59
2023-04-16T07:37:10.865Z,98112.56
2023-04-16T07:39:38.471Z,98124.88
2023-04-16T07:42:06.542Z,98126.50
2023-04-16T07:44:34.089Z,98132.97
2023-04-16T07:47:03.552Z,98130.69
2023-04-16T07:49:32.897Z,98136.28
2023-04-16T07:52:00.511Z,98127.22
2023-04-16T07:54:29.094Z,98116.38
2023-04-16T07:56:56.726Z,98106.44
2023-04-16T07:59:24.623Z,98119.09
2023-04-16T08:01:54.005Z,98123.16
2023-04-16T08:04:25.497Z,98100.09
2023-04-16T08:06:54.319Z,98113.13
2023-04-16T08:09:26.539Z,98116.81
2023-04-16T08:11:54.275Z,98091.56
2023-04-16T08:14:21.853Z,98085.06
2023-04-16T08:16:51.429Z,98074.41
2023-04-16T08:19:19.074Z,98094.41
2023-04-16T08:21:47.246Z,98097.91
2023-04-16T08:24:14.831Z,98087.00
2023-04-16T08:26:42.323Z,98090.88
2023-04-16T08:29:10.092Z,98062.59
2023-04-16T08:31:37.953Z,98071.44
2023-04-16T08:34:05.389Z,98062.75
2023-04-16T08:36:32.937Z,98073.63
2023-04-16T08:39:00.451Z,98078.09
2023-04-16T08:41:32.756Z,98070.84
2023-04-16T08:44:06.624Z,98071.69
2023-04-16T08:46:38.153Z,98067.66
2023-04-16T08:49:08.195Z,98083.81
2023-04-16T08:51:36.264Z,98086.50
2023-04-16T08:54:08.974Z,98077.59
2023-04-16T08:56:41.653Z,98081.88
2023-04-16T08:59:10.901Z,98081.28
2023-04-16T09:01:41.655Z,98083.91
2023-04-16T09:04:09.874Z,98077.19
2023-04-16T09:06:38.872Z,98084.78
2023-04-16T09:09:08.993Z,98077.38
2023-04-16T09:11:38.950Z,98064.66
2023-04-16T09:14:10.432Z,98055.75
2023-04-16T09:16:39.164Z,98055.34
2023-04-16T09:19:06.747Z,98061.69
2023-04-16T09:21:34.286Z,98062.13
2023-04-16T09:24:02.400Z,98058.78
2023-04-16T09:26:31.197Z,98055.63
2023-04-16T09:28:58.751Z,98063.16
2023-04-16T09:31:26.237Z,98076.91
2023-04-16T09:34:11.941Z,98057.75
2023-04-16T09:36:39.398Z,98057.25
2023-04-16T09:39:06.889Z,98055.16
2023-04-16T09:41:39.720Z,98081.53
2023-04-16T09:44:07.402Z,98077.09
2023-04-16T09:46:45.144Z,98067.09
2023-04-16T09:49:18.620Z,98062.03
2023-04-16T09:51:56.121Z,98083.66
2023-04-16T09:54:25.890Z,98072.44
2023-04-16T09:56:57.437Z,98077.84
2023-04-16T09:59:25.762Z,98065.91
2023-04-16T10:02:14.624Z,98062.38
2023-04-16T10:04:51.478Z,98062.25
2023-04-16T10:07:20.252Z,98056.88
2023-04-16T10:09:50.004Z,98062.31
2023-04-16T10:12:17.607Z,98057.22
2023-04-16T10:14:46.468Z,98058.00
2023-04-16T10:17:18.419Z,98058.63
2023-04-16T10:19:48.273Z,98043.84
2023-04-16T10:22:16.173Z,98047.31
2023-04-16T10:24:44.018Z,98054.13
2023-04-16T10:27:12.355Z,98046.53
2023-04-16T10:29:40.575Z,98059.56
2023-04-16T10:32:09.799Z,98046.34
2023-04-16T10:34:37.379Z,98041.75
2023-04-16T10:37:05.019Z,98041.09
2023-04-16T10:39:38.912Z,98027.41
2023-04-16T10:42:14.389Z,98039.66
2023-04-16T10:44:44.566Z,98042.91
2023-04-16T10:47:14.482Z,98042.84
2023-04-16T10:49:43.826Z,98037.94
2023-04-16T10:52:18.032Z,98045.38
2023-04-16T10:54:48.360Z,98042.31
2023-04-16T10:57:19.699Z,98039.06
2023-04-16T10:59:49.088Z,98026.31
2023-04-16T11:02:19.218Z,98030.88
2023-04-16T11:04:49.444Z,98039.16
2023-04-16T11:07:21.108Z,98040.63
2023-04-16T11:10:04.184Z,98031.91
2023-04-16T11:12:57.857Z,98036.56
2023-04-16T11:15:30.904Z,98043.31
2023-04-16T11:17:58.485Z,98035.97
2023-04-16T11:20:28.344Z,98039.50
2023-04-16T11:22:58.027Z,98035.56
2023-04-16T11:25:34.063Z,98045.59
2023-04-16T11:28:02.868Z,98046.22
2023-04-16T11:30:36.446Z,98040.00
2023-04-16T11:33:06.079Z,98043.72
2023-04-16T11:35:34.125Z,98049.19
2023-04-16T11:38:01.440Z,98042.75
2023-04-16T11:40:31.856Z,98042.72
2023-04-16T11:43:17.145Z,98034.19
2023-04-16T11:46:07.521Z,98039.72
2023-04-16T11:48:54.457Z,98030.47
2023-04-16T11:51:23.531Z,98030.63
2023-04-16T11:53:54.126Z,98025.53
2023-04-16T11:56:30.664Z,98026.91
2023-04-16T11:59:10.361Z,98023.09
2023-04-16T12:01:40.564Z,98022.06
2023-04-16T12:04:09.666Z,98021.41
2023-04-16T12:06:37.402Z,98024.94
2023-04-16T12:09:27.403Z,98018.47
2023-04-16T12:11:54.976Z,98019.25
2023-04-16T12:14:23.572Z,98020.56
2023-04-16T12:16:51.123Z,98011.78
2023-04-16T12:19:19.208Z,98014.66
2023-04-16T12:21:48.876Z,98007.88
2023-04-16T12:24:23.930Z,98014.41
2023-04-16T12:27:03.058Z,98015.25
2023-04-16T12:29:31.929Z,98006.47
2023-04-16T12:31:59.395Z,97996.44
2023-04-16T12:34:41.897Z,97995.63
2023-04-16T12:37:16.045Z,97987.06
2023-04-16T12:39:43.877Z,97984.16
2023-04-16T12:42:12.845Z,97979.38
2023-04-16T12:44:40.765Z,97980.06
2023-04-16T12:47:08.313Z,97977.94
2023-04-16T12:49:38.295Z,97963.53
2023-04-16T12:52:06.706Z,97965.13
2023-04-16T12:54:34.383Z,97963.09
2023-04-16T12:57:01.871Z,97956.19
2023-04-16T12:59:30.691Z,97961.16
2023-04-16T13:01:58.218Z,97959.03
2023-04-16T13:04:27.299Z,97949.16
2023-04-16T13:06:54.947Z,97946.56
2023-04-16T13:09:22.463Z,97945.59
2023-04-16T13:11:49.941Z,97949.41
2023-04-16T13:14:17.821Z,97949.03
2023-04-16T13:16:45.537Z,97950.63
2023-04-16T13:19:13.398Z,97936.72
2023-04-16T13:21:41.083Z,97944.94
2023-04-16T13:24:08.521Z,97952.47
2023-04-16T13:26:36.029Z,97942.13
2023-04-16T13:29:03.752Z,97952.91
2023-04-16T13:31:31.362Z,97957.50
2023-04-16T13:33:58.940Z,97952.09
2023-04-16T13:36:27.812Z,97955.72
2023-04-16T13:38:55.481Z,97959.66
2023-04-16T13:41:23.196Z,97955.53
2023-04-16T13:43:50.756Z,97951.13
2023-04-16T13:46:19.088Z,97950.50
2023-04-16T13:48:46.962Z,97957.75
2023-04-16T13:51:15.615Z,97953.88
2023-04-16T13:53:43.089Z,97957.34
2023-04-16T13:56:11.370Z,97951.22
2023-04-16T13:58:39.055Z,97953.53
2023-04-16T14:01:06.649Z,97956.50
2023-04-16T14:03:38.902Z,97964.53
2023-04-16T14:06:06.879Z,97959.19
2023-04-16T14:08:34.463Z,97970.13
2023-04-16T14:11:02.172Z,97961.38
2023-04-16T14:13:29.656Z,97973.31
2023-04-16T14:15:57.140Z,97970.91
2023-04-16T14:18:24.583Z,97965.81
2023-04-16T14:20:52.119Z,97962.41
2023-04-16T14:23:19.560Z,97966.38
2023-04-16T14:25:47.051Z,97961.47
2023-04-16T14:28:15.704Z,97966.91
2023-04-16T14:30:43.473Z,97965.69
2023-04-16T14:33:10.961Z,97965.38
2023-04-16T14:35:38.578Z,97961.28
2023-04-16T14:38:06.486Z,97967.09
2023-04-16T14:40:34.846Z,97965.31
2023-04-16T14:43:02.324Z,97957.50
2023-04-16T14:45:30.922Z,97956.78
2023-04-16T14:47:58.475Z,97965.50
2023-04-16T14:50:26.300Z,97961.03
2023-04-16T14:52:54.637Z,97962.81
2023-04-16T14:55:23.492Z,97966.34
2023-04-16T14:57:51.286Z,97961.53
2023-04-16T15:00:19.304Z,97969.75
2023-04-16T15:02:48.185Z,97970.09
2023-04-16T15:05:16.152Z,97974.22
2023-04-16T15:07:43.752Z,97983.94
2023-04-16T15:10:12.580Z,97996.06
2023-04-16T15:12:40.463Z,98012.06
2023-04-16T15:15:09.653Z,98022.13
2023-04-16T15:17:37.330Z,98039.31
2023-04-16T15:20:08.480Z,98054.03
2023-04-16T15:22:36.104Z,98067.59
2023-04-16T15:25:04.522Z,98081.38
2023-04-16T15:27:33.380Z,98080.56
2023-04-16T15:30:00.881Z,98096.41
2023-04-16T15:32:28.538Z,98098.34
2023-04-16T15:34:56.180Z,98118.84
2023-04-16T15:37:24.088Z,98121.00
2023-04-16T15:39:51.583Z,98131.66
2023-04-16T15:42:19.085Z,98130.59
2023-04-16T15:44:46.554Z,98121.38
2023-04-16T15:47:13.985Z,98122.38
2023-04-16T15:49:42.414Z,98125.75
2023-04-16T15:52:11.761Z,98121.75
2023-04-16T15:54:39.336Z,98130.19
2023-04-16T15:57:06.913Z,98128.94
2023-04-16T15:59:34.587Z,98107.00
2023-04-16T16:02:02.608Z,98102.91
2023-04-16T16:04:30.441Z,98098.44
2023-04-16T16:06:58.032Z,98088.97
2023-04-16T16:09:27.212Z,98077.09
2023-04-16T16:11:55.728Z,98059.69
2023-04-16T16:14:23.381Z,98051.19
2023-04-16T16:16:51.274Z,98046.09
2023-04-16T16:19:18.893Z,98037.59
2023-04-16T16:21:46.923Z,98039.00
2023-04-16T16:24:14.412Z,98043.56
2023-04-16T16:26:41.977Z,98046.81
2023-04-16T16:29:09.750Z,98039.59
2023-04-16T16:31:37.561Z,98054.09
2023-04-16T16:34:04.997Z,98056.50
2023-04-16T16:36:36.643Z,98059.72
2023-04-16T16:39:04.830Z,98065.03
2023-04-16T16:41:32.366Z,98073.72
2023-04-16T16:44:00.107Z,98076.50
2023-04-16T16:46:27.676Z,98085.00
2023-04-16T16:48:55.278Z,98078.75
2023-04-16T16:51:22.744Z,98077.97
2023-04-16T16:53:50.359Z,98082.53
2023-04-16T16:56:18.836Z,98074.91
2023-04-16T16:58:46.423Z,98069.88
2023-04-16T17:01:13.863Z,98067.63
2023-04-16T17:03:41.540Z,98071.06
2023-04-16T17:06:09.135Z,98081.34
2023-04-16T17:08:36.684Z,98081.94
2023-04-16T17:11:04.685Z,98091.59
2023-04-16T17:13:32.843Z,98100.91
2023-04-16T17:16:01.089Z,98122.03
2023-04-16T17:18:30.341Z,98138.34
2023-04-16T17:20:57.919Z,98146.63
2023-04-16T17:23:25.605Z,98138.53
2023-04-16T17:25:53.234Z,98136.84
2023-04-16T17:28:21.137Z,98129.97
2023-04-16T17:30:53.239Z,98116.47
2023-04-16T17:33:20.812Z,98123.47
2023-04-16T17:35:48.380Z,98127.28
2023-04-16T17:38:15.963Z,98133.50
2023-04-16T17:40:43.510Z,98133.44
2023-04-16T17:43:10.999Z,98130.41
2023-04-16T17:45:38.632Z,98130.38
2023-04-16T17:48:06.549Z,98123.25
2023-04-16T17:50:34.162Z,98116.97
2023-04-16T17:53:03.862Z,98116.38
2023-04-16T17:55:31.862Z,98116.56
2023-04-16T17:58:00.398Z,98122.59
2023-04-16T18:00:27.843Z,98116.56
2023-04-16T18:02:56.749Z,98117.56
2023-04-16T18:05:24.669Z,98112.50
2023-04-16T18:07:54.644Z,98105.47
2023-04-16T18:10:22.285Z,98110.69
2023-04-16T18:12:49.766Z,98116.72
2023-04-16T18:15:17.404Z,98114.56
2023-04-16T18:17:44.840Z,98119.59
2023-04-16T18:20:12.699Z,98127.25
2023-04-16T18:22:40.378Z,98126.25
2023-04-16T18:25:08.378Z,98127.06
2023-04-16T18:27:36.943Z,98128.66
2023-04-16T18:30:06.012Z,98127.66
2023-04-16T18:32:33.772Z,98122.44
2023-04-16T18:35:01.569Z,98127.50
2023-04-16T18:37:29.020Z,98113.81
2023-04-16T18:39:58.046Z,98117.63
2023-04-16T18:42:29.553Z,98118.41
2023-04-16T18:44:57.209Z,98126.06
2023-04-16T18:47:25.540Z,98124.44
2023-04-16T18:49:53.071Z,98124.66
2023-04-16T18:52:20.539Z,98123.66
2023-04-16T18:54:48.048Z,98114.38
2023-04-16T18:57:16.829Z,98117.81
2023-04-16T18:59:44.423Z,98122.59
2023-04-16T19:02:13.110Z,98120.59
2023-04-16T19:04:40.802Z,98118.78
2023-04-16T19:07:08.851Z,98122.03
2023-04-16T19:09:36.389Z,98121.41
2023-04-16T19:12:05.583Z,98131.44
2023-04-16T19:14:33.071Z,98123.34
2023-04-16T19:17:00.529Z,98122.16
2023-04-16T19:19:27.965Z,98116.69
2023-04-16T19:21:55.618Z,98119.72
2023-04-16T19:24:23.605Z,98119.72
2023-04-16T19:26:52.501Z,98124.34
2023-04-16T19:29:20.034Z,98121.72
2023-04-16T19:31:47.711Z,98123.28
2023-04-16T19:34:15.822Z,98120.84
2023-04-16T19:36:44.481Z,98121.91
2023-04-16T19:39:12.303Z,98121.66
2023-04-16T19:41:39.890Z,98129.88
2023-04-16T19:44:07.432Z,98132.69
2023-04-16T19:46:34.906Z,98129.22
2023-04-16T19:49:03.878Z,98131.03
2023-04-16T19:51:31.292Z,98132.03
2023-04-16T19:53:59.126Z,98138.88
2023-04-16T19:56:27.184Z,98140.88
2023-04-16T19:58:54.668Z,98147.50
2023-04-16T20:01:25.099Z,98146.09
2023-04-16T20:03:53.154Z,98146.09
2023-04-16T20:06:20.711Z,98146.69
2023-04-16T20:08:48.158Z,98147.34
2023-04-16T20:11:15.732Z,98147.75
2023-04-16T20:13:46.390Z,98149.41
2023-04-16T20:16:14.147Z,98152.56
2023-04-16T20:18:42.596Z,98153.56
2023-04-16T20:21:11.642Z,98149.94
2023-04-16T20:23:38.991Z,98138.06
2023-04-16T20:26:07.032Z,98130.78
2023-04-16T20:28:34.684Z,98132.53
2023-04-16T20:31:02.170Z,98133.88
2023-04-16T20:33:29.633Z,98129.84
2023-04-16T20:35:58.475Z,98133.28
2023-04-16T20:38:29.623Z,98135.25
2023-04-16T20:41:20.409Z,98128.59
2023-04-16T20:43:50.287Z,98127.19
2023-04-16T20:46:17.875Z,98125.56
2023-04-16T20:48:45.402Z,98113.69
2023-04-16T20:51:13.054Z,98122.97
2023-04-16T20:53:40.761Z,98121.31
2023-04-16T20:56:10.140Z,98127.53
2023-04-16T20:58:37.692Z,98126.94
2023-04-16T21:01:05.968Z,98133.75
2023-04-16T21:03:33.863Z,98138.16
2023-04-16T21:06:01.901Z,98136.97
2023-04-16T21:08:29.901Z,98135.19
2023-04-16T21:10:57.481Z,98133.75
2023-04-16T21:13:25.022Z,98133.94
2023-04-16T21:15:52.969Z,98125.94
2023-04-16T21:18:21.575Z,98132.13
2023-04-16T21:20:49.053Z,98131.94
2023-04-16T21:23:16.594Z,98124.75
2023-04-16T21:25:45.237Z,98120.91
2023-04-16T21:28:12.797Z,98116.84
2023-04-16T21:30:40.580Z,98123.66
2023-04-16T21:33:08.747Z,98124.50
2023-04-16T21:35:36.211Z,98115.22
2023-04-16T21:38:03.753Z,98114.44
2023-04-16T21:40:31.185Z,98110.41
2023-04-16T21:42:58.629Z,98108.41
2023-04-16T21:45:26.061Z,98099.13
2023-04-16T21:47:53.584Z,98092.31
2023-04-16T21:50:21.063Z,98100.94
2023-04-16T21:52:49.204Z,98097.91
2023-04-16T21:55:16.764Z,98097.72
2023-04-16T21:57:44.346Z,98094.09
2023-04-16T22:00:13.891Z,98105.72
2023-04-16T22:02:42.730Z,98108.16
2023-04-16T22:05:11.639Z,98114.16
2023-04-16T22:07:39.331Z,98112.38
2023-04-16T22:10:08.807Z,98118.38
2023-04-16T22:12:39.811Z,98112.16
2023-04-16T22:15:09.070Z,98115.63
2023-04-16T22:17:38.140Z,98104.53
2023-04-16T22:20:12.446Z,98109.75
2023-04-16T22:22:41.597Z,98110.56
2023-04-16T22:25:10.032Z,98114.78
2023-04-16T22:27:37.842Z,98114.63
2023-04-16T22:30:08.369Z,98114.63
2023-04-16T22:32:36.063Z,98107.78
2023-04-16T22:35:03.923Z,98105.19
2023-04-16T22:37:31.468Z,98105.19
2023-04-16T22:39:58.923Z,98111.38
2023-04-16T22:42:27.076Z,98106.00
2023-04-16T22:44:54.562Z,98093.09
2023-04-16T22:47:22.659Z,98102.75
2023-04-16T22:49:50.288Z,98112.16
2023-04-16T22:52:17.712Z,98101.56
2023-04-16T22:54:45.185Z,98102.56
2023-04-16T22:57:13.233Z,98110.81
2023-04-16T22:59:40.819Z,98112.44
2023-04-16T23:02:08.496Z,98121.69
2023-04-16T23:04:36.068Z,98115.03
2023-04-16T23:07:03.552Z,98119.28
2023-04-16T23:09:31.463Z,98126.94
2023-04-16T23:11:59.209Z,98124.75
2023-04-16T23:14:26.796Z,98124.31
2023-04-16T23:16:54.258Z,98125.94
2023-04-16T23:19:21.782Z,98113.22
2023-04-16T23:21:49.276Z,98105.00
2023-04-16T23:24:17.274Z,98106.16
2023-04-16T23:26:44.789Z,98108.16
2023-04-16T23:29:12.504Z,98108.59
2023-04-16T23:31:40.286Z,98113.63
2023-04-16T23:34:07.853Z,98112.38
2023-04-16T23:36:35.328Z,98102.56
2023-04-16T23:39:04.349Z,98102.75
2023-04-16T23:41:31.964Z,98101.94
2023-04-16T23:43:59.369Z,98105.19
2023-04-16T23:46:26.930Z,98099.78
2023-04-16T23:48:55.423Z,98089.94
2023-04-16T23:51:23.042Z,98087.88
2023-04-16T23:53:50.520Z,98082.66
2023-04-16T23:56:18.411Z,98079.44
2023-04-16T23:58:45.905Z,98089.06
